Time;durP1;ratioP1;P1;durP2;ratioP2;P2;SDS_P1;SDS_P2;PMS_P1;PMS_P2;Temp;Humidity;BMP_temperature;BMP_pressure;BME280_temperature;BME280_humidity;BME280_pressure;Samples;Min_cycle;Max_cycle;Signal;HPM_P1;HPM_P2
2022/08/11 00:02:11;;;;;;;5.43;1.92;;;29.80;29.40;;;;;;6008621;29;20038;-73
2022/08/11 00:05:15;;;;;;;2.97;2.40;;;29.90;29.60;;;;;;6026904;29;20053;-73
2022/08/11 00:08:35;;;;;;;2.78;2.13;;;29.80;29.70;;;;;;6012426;29;20034;-72
2022/08/11 00:11:46;;;;;;;5.32;2.30;;;29.80;29.80;;;;;;6009893;29;20114;-73
2022/08/11 00:14:59;;;;;;;3.95;2.45;;;29.80;29.80;;;;;;6012470;29;20038;-73
2022/08/11 00:18:00;;;;;;;3.03;2.10;;;29.80;30.00;;;;;;6010711;29;20102;-72
2022/08/11 00:21:01;;;;;;;3.92;2.42;;;29.80;30.00;;;;;;6010781;29;20053;-72
2022/08/11 00:24:03;;;;;;;4.00;2.35;;;29.70;30.00;;;;;;6015005;29;20057;-72
2022/08/11 00:27:05;;;;;;;3.10;2.20;;;29.70;30.00;;;;;;6011902;29;20038;-73
2022/08/11 00:30:09;;;;;;;3.28;2.45;;;29.70;30.00;;;;;;6010236;29;20042;-73
2022/08/11 00:33:10;;;;;;;3.00;2.35;;;29.60;30.00;;;;;;6025586;29;20046;-73
2022/08/11 00:36:15;;;;;;;4.03;2.38;;;29.60;30.00;;;;;;6011738;29;20063;-74
2022/08/11 00:39:19;;;;;;;4.10;2.42;;;29.50;30.00;;;;;;5983001;29;20125;-73
2022/08/11 00:42:39;;;;;;;3.20;2.10;;;29.50;30.00;;;;;;6023186;29;20053;-72
2022/08/11 00:46:03;;;;;;;6.25;2.60;;;29.40;30.00;;;;;;6008919;29;20034;-73
2022/08/11 00:49:33;;;;;;;4.43;2.28;;;29.20;30.10;;;;;;5992036;29;20041;-73
2022/08/11 00:52:52;;;;;;;2.55;2.15;;;29.30;30.30;;;;;;5992367;29;20069;-71
2022/08/11 00:56:05;;;;;;;5.93;2.03;;;29.20;30.40;;;;;;6006688;29;20078;-73
2022/08/11 00:59:24;;;;;;;3.67;2.13;;;29.20;30.70;;;;;;5992894;29;20365;-72
2022/08/11 01:02:56;;;;;;;3.17;1.98;;;29.20;30.80;;;;;;6004857;29;20132;-71
2022/08/11 01:05:56;;;;;;;9.13;2.22;;;29.00;30.80;;;;;;6006394;29;20050;-71
2022/08/11 01:09:34;;;;;;;9.85;2.13;;;29.00;30.80;;;;;;6004414;29;20038;-71
2022/08/11 01:13:07;;;;;;;4.20;2.42;;;28.90;30.90;;;;;;6001527;29;20041;-71
2022/08/11 01:16:31;;;;;;;2.85;2.10;;;28.90;31.10;;;;;;5986127;29;20045;-71
2022/08/11 01:20:09;;;;;;;4.25;2.45;;;28.90;31.10;;;;;;5907962;29;20051;-70
2022/08/11 01:23:58;;;;;;;8.32;2.40;;;28.90;31.10;;;;;;5919803;29;20039;-73
2022/08/11 01:27:20;;;;;;;2.78;2.10;;;28.80;31.20;;;;;;5858895;30;20176;-72
2022/08/11 01:30:39;;;;;;;2.80;2.10;;;28.70;31.10;;;;;;5867587;30;20070;-72
2022/08/11 01:34:08;;;;;;;2.92;2.30;;;28.70;31.30;;;;;;5882269;30;20597;-72
2022/08/11 01:37:30;;;;;;;3.28;2.45;;;28.70;31.40;;;;;;5862295;30;20131;-71
2022/08/11 01:40:50;;;;;;;3.15;2.50;;;28.60;31.40;;;;;;5867852;30;20051;-72
2022/08/11 01:47:52;;;;;;;2.60;2.17;;;28.60;31.60;;;;;;5864522;30;20047;-72
2022/08/11 01:51:16;;;;;;;7.43;2.58;;;28.60;31.60;;;;;;5869516;30;20044;-72
2022/08/11 01:54:22;;;;;;;7.45;2.40;;;28.50;31.70;;;;;;5867895;30;20067;-72
2022/08/11 01:57:35;;;;;;;2.67;2.42;;;28.50;31.90;;;;;;5910181;29;20051;-72
2022/08/11 02:01:05;;;;;;;4.05;2.30;;;28.50;31.90;;;;;;5913618;29;20134;-73
2022/08/11 02:04:17;;;;;;;2.75;2.33;;;28.40;31.90;;;;;;5983191;29;20057;-72
2022/08/11 02:07:27;;;;;;;6.47;2.20;;;28.40;31.90;;;;;;6002147;29;20361;-72
2022/08/11 02:14:14;;;;;;;3.08;2.42;;;28.30;32.20;;;;;;6004837;29;20134;-72
2022/08/11 02:17:34;;;;;;;3.30;2.13;;;28.30;32.40;;;;;;6006252;29;20093;-72
2022/08/11 02:24:35;;;;;;;2.28;2.08;;;28.20;33.00;;;;;;5933308;29;20128;-72
2022/08/11 02:27:42;;;;;;;5.63;2.30;;;28.10;33.00;;;;;;5935707;29;20062;-72
2022/08/11 02:34:43;;;;;;;6.30;2.50;;;28.10;33.50;;;;;;5940089;29;20101;-72
2022/08/11 02:38:08;;;;;;;4.72;2.40;;;28.00;33.70;;;;;;5938694;29;20059;-72
2022/08/11 02:44:53;;;;;;;4.85;2.50;;;27.90;33.80;;;;;;5953114;29;20120;-72
2022/08/11 02:51:47;;;;;;;2.97;2.25;;;27.90;33.90;;;;;;5938882;29;20051;-72
2022/08/11 02:55:18;;;;;;;3.20;2.25;;;27.80;34.00;;;;;;5952684;29;20067;-72
2022/08/11 02:58:42;;;;;;;4.80;2.28;;;27.80;34.00;;;;;;5938829;29;20062;-72
2022/08/11 03:01:51;;;;;;;5.40;2.20;;;27.70;34.00;;;;;;6008867;29;20046;-71
2022/08/11 03:05:10;;;;;;;3.55;2.45;;;27.70;34.70;;;;;;6007162;29;20050;-72
2022/08/11 03:08:33;;;;;;;4.32;2.67;;;27.70;34.80;;;;;;6030909;29;20053;-72
2022/08/11 03:19:09;;;;;;;3.47;2.58;;;27.60;34.20;;;;;;6024263;29;20050;-72
2022/08/11 03:22:31;;;;;;;11.90;2.72;;;27.60;34.20;;;;;;6003340;29;21475;-72
2022/08/11 03:25:51;;;;;;;4.13;2.42;;;27.70;34.20;;;;;;6021663;29;20034;-72
2022/08/11 03:29:10;;;;;;;3.22;2.50;;;27.60;34.10;;;;;;6008280;29;20215;-72
2022/08/11 03:32:40;;;;;;;6.80;2.80;;;27.70;34.20;;;;;;6005780;29;20038;-72
2022/08/11 03:35:57;;;;;;;9.38;2.58;;;27.60;34.40;;;;;;6007389;29;20037;-72
2022/08/11 03:39:07;;;;;;;4.07;2.58;;;27.60;34.60;;;;;;6022283;29;20392;-72
2022/08/11 03:42:46;;;;;;;6.07;2.55;;;27.60;34.80;;;;;;6023902;29;20070;-72
2022/08/11 03:46:09;;;;;;;3.63;2.40;;;27.50;34.80;;;;;;6007372;29;20046;-72
2022/08/11 03:49:26;;;;;;;3.90;2.65;;;27.50;34.70;;;;;;6008569;29;20543;-72
2022/08/11 03:52:33;;;;;;;3.53;3.03;;;27.50;34.80;;;;;;6007046;29;20452;-72
2022/08/11 03:55:36;;;;;;;4.55;2.67;;;27.50;35.00;;;;;;6009548;29;20046;-72
2022/08/11 03:59:02;;;;;;;3.88;2.10;;;27.40;35.00;;;;;;6006827;29;20046;-71
2022/08/11 04:02:14;;;;;;;2.97;2.38;;;27.40;35.10;;;;;;6022154;29;20409;-72
2022/08/11 04:05:39;;;;;;;3.40;2.58;;;27.40;35.20;;;;;;6013183;29;20049;-72
2022/08/11 04:09:24;;;;;;;6.18;2.75;;;27.30;35.20;;;;;;5988643;29;20041;-72
2022/08/11 04:12:34;;;;;;;2.88;2.05;;;27.30;35.30;;;;;;6007451;29;20041;-72
2022/08/11 04:16:02;;;;;;;4.22;2.72;;;27.30;35.30;;;;;;6008730;29;20496;-72
2022/08/11 04:19:35;;;;;;;3.83;2.67;;;27.30;35.50;;;;;;6007281;29;20128;-73
2022/08/11 04:23:02;;;;;;;5.22;2.50;;;27.20;35.70;;;;;;6008527;29;20034;-72
2022/08/11 04:26:25;;;;;;;4.22;2.45;;;27.10;36.00;;;;;;6005383;29;20052;-71
2022/08/11 04:30:03;;;;;;;4.10;2.63;;;27.00;36.30;;;;;;6005542;29;20152;-72
2022/08/11 04:33:36;;;;;;;2.45;2.10;;;26.90;36.60;;;;;;5986903;29;20046;-72
2022/08/11 04:40:41;;;;;;;3.10;2.25;;;26.70;37.00;;;;;;6005608;29;20068;-72
2022/08/11 04:44:00;;;;;;;6.00;2.80;;;26.60;37.20;;;;;;6005876;29;20125;-72
2022/08/11 05:01:39;;;;;;;;;;;26.50;37.30;;;;;;6008264;29;20034;-72
2022/08/11 05:02:25;;;;;;;7.18;2.10;;;26.30;37.90;;;;;;6001810;29;20048;-72
2022/08/11 05:05:35;;;;;;;5.47;2.25;;;26.20;38.10;;;;;;6004433;29;20049;-71
2022/08/11 05:09:12;;;;;;;12.77;2.58;;;26.20;38.10;;;;;;6007431;29;20053;-71
2022/08/11 05:12:20;;;;;;;5.50;2.30;;;26.20;38.20;;;;;;6022156;29;20038;-71
2022/08/11 05:36:36;;;;;;;6.38;2.50;;;26.40;38.20;;;;;;6005467;29;20056;-72
2022/08/11 05:56:56;;;;;;;6.68;3.00;;;26.40;38.70;;;;;;6004392;29;20042;-72
2022/08/11 06:00:03;;;;;;;8.52;3.53;;;26.50;38.70;;;;;;6004550;29;20034;-72
2022/08/11 06:03:09;;;;;;;2.92;2.50;;;26.50;38.60;;;;;;6004109;29;20030;-72
2022/08/11 06:06:10;;;;;;;3.85;2.30;;;26.50;38.40;;;;;;6007556;29;20085;-72
2022/08/11 06:09:13;;;;;;;10.02;3.10;;;26.60;38.30;;;;;;5989309;29;20117;-72
2022/08/11 06:12:24;;;;;;;7.15;2.88;;;26.70;38.30;;;;;;6005054;29;20061;-72
2022/08/11 06:15:26;;;;;;;5.65;2.70;;;26.70;38.30;;;;;;6005207;29;20459;-72
2022/08/11 06:18:29;;;;;;;13.32;2.67;;;26.80;38.20;;;;;;5970736;29;20125;-72
2022/08/11 06:21:34;;;;;;;7.28;3.30;;;26.80;38.20;;;;;;6003666;29;20062;-71
2022/08/11 06:24:38;;;;;;;13.85;3.67;;;26.80;38.10;;;;;;6006493;29;20038;-71
2022/08/11 06:27:42;;;;;;;5.05;2.60;;;26.90;38.10;;;;;;6004013;29;20072;-73
2022/08/11 06:30:45;;;;;;;3.83;2.60;;;26.90;38.10;;;;;;6006782;29;20109;-72
2022/08/11 06:33:54;;;;;;;5.40;3.05;;;27.00;38.10;;;;;;6007696;29;20101;-71
2022/08/11 06:37:23;;;;;;;5.22;2.85;;;27.00;38.00;;;;;;6003169;29;20030;-71
2022/08/11 06:44:13;;;;;;;8.13;3.28;;;27.10;37.80;;;;;;5982174;29;20042;-73
2022/08/11 06:47:16;;;;;;;12.05;3.03;;;27.10;37.50;;;;;;5984454;29;20117;-72
2022/08/11 06:53:58;;;;;;;5.22;3.15;;;27.20;37.30;;;;;;5962720;29;20096;-71
2022/08/11 07:00:29;;;;;;;10.95;3.35;;;27.30;36.90;;;;;;5966631;29;20461;-72
2022/08/11 07:03:36;;;;;;;4.68;3.72;;;27.30;36.70;;;;;;5981915;29;20054;-72
2022/08/11 07:06:41;;;;;;;10.70;2.88;;;27.40;36.50;;;;;;5980819;29;20079;-72
2022/08/11 07:16:57;;;;;;;3.85;2.70;;;27.80;35.50;;;;;;5988685;29;20113;-71
2022/08/11 07:30:10;;;;;;;7.50;3.50;;;28.30;34.60;;;;;;5985825;29;20076;-72
2022/08/11 07:33:14;;;;;;;5.65;3.30;;;28.40;34.20;;;;;;5986262;29;20049;-72
2022/08/11 07:36:17;;;;;;;3.83;2.70;;;28.50;34.20;;;;;;5985767;29;20050;-72
2022/08/11 07:39:21;;;;;;;5.63;3.22;;;28.60;34.20;;;;;;5986605;29;20056;-72
2022/08/11 07:42:27;;;;;;;7.30;2.95;;;28.70;34.10;;;;;;6000996;29;20046;-72
2022/08/11 07:55:34;;;;;;;6.35;3.05;;;29.20;33.20;;;;;;6008253;29;20110;-74
2022/08/11 08:18:41;;;;;;;7.35;3.00;;;30.10;31.30;;;;;;6007804;29;20038;-72
2022/08/11 08:21:43;;;;;;;10.93;2.58;;;30.20;31.20;;;;;;5996820;29;20050;-72
2022/08/11 08:24:45;;;;;;;6.03;2.58;;;30.30;30.90;;;;;;6009507;29;20541;-72
2022/08/11 08:27:48;;;;;;;4.00;2.78;;;30.40;30.70;;;;;;5991844;29;20038;-72
2022/08/11 08:30:51;;;;;;;4.85;2.70;;;30.60;30.50;;;;;;6006576;29;20046;-74
2022/08/11 08:33:52;;;;;;;3.67;2.55;;;30.80;30.30;;;;;;6007447;29;20213;-73
2022/08/11 08:36:53;;;;;;;6.85;2.85;;;30.90;29.90;;;;;;6006385;29;20054;-72
2022/08/11 08:39:54;;;;;;;6.28;2.78;;;30.90;30.20;;;;;;6006608;29;20045;-72
2022/08/11 08:43:00;;;;;;;3.25;2.45;;;31.10;29.70;;;;;;5998608;29;20050;-73
2022/08/11 08:46:07;;;;;;;5.72;2.75;;;31.10;29.50;;;;;;6007094;29;20367;-73
2022/08/11 08:49:13;;;;;;;6.33;2.43;;;31.30;29.30;;;;;;6005752;29;20034;-73
2022/08/11 08:52:19;;;;;;;7.07;2.33;;;31.40;29.20;;;;;;6002517;29;20042;-72
2022/08/11 08:55:20;;;;;;;6.25;3.10;;;31.50;29.10;;;;;;6011695;29;20477;-72
2022/08/11 08:58:23;;;;;;;6.65;4.15;;;31.60;28.90;;;;;;6006507;29;20038;-72
2022/08/11 09:01:28;;;;;;;3.40;2.95;;;31.70;28.80;;;;;;6006417;29;20263;-72
2022/08/11 09:04:30;;;;;;;5.22;2.90;;;31.70;28.60;;;;;;6009313;29;20065;-72
2022/08/11 09:07:32;;;;;;;3.70;2.70;;;31.70;28.50;;;;;;6009571;29;20102;-72
2022/08/11 09:10:34;;;;;;;5.55;3.45;;;31.80;28.60;;;;;;6028456;29;20062;-72
2022/08/11 09:13:36;;;;;;;2.75;2.35;;;31.90;28.60;;;;;;5991160;29;20034;-73
2022/08/11 09:16:38;;;;;;;6.18;2.70;;;31.90;28.40;;;;;;6008152;29;20089;-72
2022/08/11 09:19:39;;;;;;;8.98;2.80;;;32.10;28.40;;;;;;6008168;29;20070;-73
2022/08/11 09:29:23;;;;;;;3.72;2.53;;;32.30;28.50;;;;;;6005603;29;20349;-73
2022/08/11 09:32:25;;;;;;;3.90;2.55;;;32.50;28.50;;;;;;6006103;29;20121;-73
2022/08/11 09:35:27;;;;;;;4.00;2.22;;;32.50;28.40;;;;;;6007178;29;20034;-73
2022/08/11 09:41:49;;;;;;;7.97;2.60;;;32.70;28.40;;;;;;6001635;29;20455;-72
2022/08/11 09:44:51;;;;;;;14.38;2.85;;;32.80;28.30;;;;;;6004180;29;20041;-72
2022/08/11 09:47:53;;;;;;;4.35;2.42;;;32.90;28.30;;;;;;5973856;29;20114;-73
2022/08/11 09:50:57;;;;;;;17.60;3.50;;;33.00;28.30;;;;;;6004045;29;20056;-72
2022/08/11 09:54:06;;;;;;;8.35;2.65;;;33.00;28.20;;;;;;5990406;29;20057;-72
2022/08/11 10:00:36;;;;;;;7.03;3.42;;;33.20;28.10;;;;;;6004899;29;20417;-71
2022/08/11 10:03:41;;;;;;;7.38;2.88;;;33.20;28.00;;;;;;6001330;29;20425;-72
2022/08/11 10:07:02;;;;;;;2.33;2.13;;;33.40;28.00;;;;;;6006172;29;20045;-72
2022/08/11 10:10:04;;;;;;;4.60;2.53;;;33.50;27.80;;;;;;5986447;29;20073;-72
2022/08/11 10:13:08;;;;;;;5.95;2.58;;;33.60;27.40;;;;;;5985826;29;20049;-72
2022/08/11 10:16:11;;;;;;;6.25;2.75;;;33.70;27.30;;;;;;5989603;29;20479;-72
2022/08/11 10:19:13;;;;;;;3.95;2.60;;;33.80;27.20;;;;;;6004671;29;20056;-73
2022/08/11 10:28:56;;;;;;;2.95;2.42;;;34.10;27.00;;;;;;5985892;29;20060;-73
2022/08/11 10:35:24;;;;;;;7.90;2.88;;;34.20;26.80;;;;;;6000954;29;20117;-72
2022/08/11 10:38:27;;;;;;;2.67;2.38;;;34.30;26.70;;;;;;6003111;29;21207;-72
2022/08/11 10:44:52;;;;;;;5.57;2.75;;;34.40;26.20;;;;;;6003361;29;20103;-72
2022/08/11 10:47:55;;;;;;;11.75;2.72;;;34.40;26.20;;;;;;5986016;29;20046;-72
2022/08/11 10:51:13;;;;;;;3.75;2.50;;;34.50;26.40;;;;;;5990388;29;20590;-73
2022/08/11 11:00:57;;;;;;;3.83;2.30;;;34.80;26.20;;;;;;6007822;29;20042;-72
2022/08/11 11:04:06;;;;;;;9.95;2.60;;;35.40;25.80;;;;;;5990772;29;20132;-73
2022/08/11 11:07:15;;;;;;;7.55;2.97;;;35.80;25.30;;;;;;5992413;29;20383;-71
2022/08/11 11:10:17;;;;;;;3.00;2.70;;;36.20;25.10;;;;;;6009772;29;20038;-71
2022/08/11 11:20:26;;;;;;;5.07;2.90;;;37.40;23.70;;;;;;5935700;29;20133;-72
2022/08/11 11:23:50;;;;;;;4.75;2.80;;;37.90;23.50;;;;;;5938311;29;20039;-71
2022/08/11 11:27:18;;;;;;;3.15;2.40;;;38.10;23.20;;;;;;5936339;29;20050;-72
2022/08/11 11:30:19;;;;;;;6.27;2.67;;;38.40;23.00;;;;;;5935831;29;20521;-72
2022/08/11 11:33:34;;;;;;;2.55;2.28;;;38.70;22.70;;;;;;5935534;29;20047;-72
2022/08/11 11:36:52;;;;;;;7.25;2.83;;;38.80;22.50;;;;;;5936055;29;20120;-71
2022/08/11 11:39:56;;;;;;;12.98;2.40;;;39.00;22.40;;;;;;5937658;29;20118;-72
2022/08/11 11:42:59;;;;;;;2.55;2.15;;;39.00;22.20;;;;;;5937373;29;20071;-72
2022/08/11 11:46:00;;;;;;;5.53;2.70;;;39.20;22.00;;;;;;5938273;29;20031;-73
2022/08/11 11:49:06;;;;;;;8.95;2.70;;;39.30;22.00;;;;;;5938307;29;20119;-73
2022/08/11 11:52:08;;;;;;;6.18;2.72;;;39.10;22.00;;;;;;5948988;29;20035;-72
2022/08/11 11:55:09;;;;;;;4.50;2.90;;;38.90;22.10;;;;;;5989004;29;20037;-72
2022/08/11 12:01:32;;;;;;;8.10;2.70;;;38.40;22.40;;;;;;5989599;29;20042;-72
2022/08/11 12:04:36;;;;;;;3.75;2.50;;;38.50;22.10;;;;;;6014744;29;20110;-73
2022/08/11 12:14:23;;;;;;;3.33;2.10;;;39.90;20.50;;;;;;6005943;29;20042;-73
2022/08/11 12:17:24;;;;;;;4.15;2.15;;;40.40;20.40;;;;;;5989865;29;20046;-72
2022/08/11 12:20:26;;;;;;;3.42;2.28;;;40.70;20.00;;;;;;6004836;29;20041;-72
2022/08/11 12:30:10;;;;;;;3.22;2.50;;;41.50;19.10;;;;;;6005637;29;20129;-74
2022/08/11 12:33:12;;;;;;;3.85;2.35;;;41.70;18.80;;;;;;6000652;29;20674;-73
2022/08/11 12:36:15;;;;;;;2.80;2.30;;;42.00;18.60;;;;;;6006242;29;20387;-72
2022/08/11 12:45:26;;;;;;;2.53;2.13;;;42.20;18.40;;;;;;5991953;29;20045;-72
2022/08/11 12:46:10;;;;;;;4.78;2.10;;;42.60;17.70;;;;;;5996345;29;20045;-72
2022/08/11 12:52:49;;;;;;;3.45;2.13;;;42.90;17.70;;;;;;6010131;29;20042;-73
2022/08/11 13:05:54;;;;;;;5.07;2.25;;;44.90;16.40;;;;;;6007017;29;20057;-73
2022/08/11 13:08:57;;;;;;;2.45;2.03;;;45.40;15.90;;;;;;5979071;29;20047;-73
2022/08/11 13:15:24;;;;;;;4.80;2.80;;;46.10;15.50;;;;;;6014337;29;20109;-72
2022/08/11 13:18:26;;;;;;;6.38;2.05;;;46.50;15.30;;;;;;6006677;29;20071;-73
2022/08/11 13:21:28;;;;;;;2.95;1.83;;;47.00;15.00;;;;;;5990214;29;20114;-73
2022/08/11 13:24:33;;;;;;;6.57;3.00;;;47.40;14.20;;;;;;5992315;29;20487;-73
2022/08/11 13:27:35;;;;;;;3.45;2.10;;;47.70;13.90;;;;;;5992212;29;20034;-73
2022/08/11 13:33:56;;;;;;;6.43;1.90;;;48.30;13.80;;;;;;6004764;29;20137;-73
2022/08/11 13:36:59;;;;;;;14.13;4.15;;;48.50;13.60;;;;;;5976777;29;20449;-73
2022/08/11 13:40:01;;;;;;;5.60;2.85;;;49.00;13.20;;;;;;6005157;29;20249;-73
2022/08/11 13:43:02;;;;;;;2.85;2.08;;;49.30;13.30;;;;;;6000857;29;20046;-73
2022/08/11 13:46:20;;;;;;;2.50;1.80;;;49.50;13.10;;;;;;5988036;29;20038;-73
2022/08/11 13:49:21;;;;;;;4.22;2.28;;;49.70;12.90;;;;;;6005110;29;20034;-73
2022/08/11 13:52:22;;;;;;;7.97;2.53;;;50.00;12.80;;;;;;6000344;29;20488;-73
2022/08/11 13:55:23;;;;;;;6.13;3.10;;;50.30;12.70;;;;;;6010312;29;20460;-73
2022/08/11 13:58:26;;;;;;;5.30;2.95;;;50.60;12.50;;;;;;6006160;29;20425;-73
2022/08/11 14:01:33;;;;;;;3.17;2.15;;;50.80;12.00;;;;;;6020167;29;20145;-73
2022/08/11 14:04:41;;;;;;;2.45;2.17;;;50.80;11.90;;;;;;6007960;29;20120;-73
2022/08/11 14:07:50;;;;;;;2.35;1.98;;;50.80;11.50;;;;;;6006119;29;20230;-73
2022/08/11 14:13:36;;;;;;;3.08;1.75;;;50.80;11.20;;;;;;6005943;29;20042;-74
2022/08/11 14:14:20;;;;;;;6.40;3.47;;;50.80;10.90;;;;;;6005542;29;20077;-73
2022/08/11 14:17:21;;;;;;;3.75;2.70;;;50.80;10.90;;;;;;6007319;29;20492;-74
2022/08/11 14:20:22;;;;;;;4.45;2.17;;;50.80;10.70;;;;;;6007470;29;20042;-74
2022/08/11 14:23:54;;;;;;;3.25;2.10;;;50.70;10.60;;;;;;6006170;29;20067;-73
2022/08/11 14:26:55;;;;;;;6.35;3.63;;;50.50;10.50;;;;;;5874049;30;20040;-72
2022/08/11 14:29:57;;;;;;;8.60;2.47;;;50.50;10.60;;;;;;5892386;30;20043;-74
2022/08/11 14:32:58;;;;;;;2.88;2.28;;;50.60;10.30;;;;;;5890261;30;20060;-73
2022/08/11 14:36:01;;;;;;;3.25;2.00;;;50.60;9.90;;;;;;5892386;30;20043;-73
2022/08/11 14:39:07;;;;;;;5.20;3.40;;;50.40;9.50;;;;;;5892170;30;20127;-73
2022/08/11 14:48:50;;;;;;;3.97;2.60;;;47.50;10.90;;;;;;5890718;30;20040;-73
2022/08/11 14:51:56;;;;;;;5.22;2.55;;;46.00;11.80;;;;;;5876906;30;20048;-73
2022/08/11 14:58:19;;;;;;;5.72;2.92;;;43.90;12.10;;;;;;5890603;30;20505;-73
2022/08/11 15:04:40;;;;;;;6.57;3.95;;;42.20;12.60;;;;;;6000670;29;20174;-72
2022/08/11 15:07:42;;;;;;;2.95;1.85;;;41.60;13.50;;;;;;6004073;29;20037;-72
2022/08/11 15:10:47;;;;;;;3.03;1.85;;;41.00;13.80;;;;;;6005199;29;20042;-73
2022/08/11 15:13:48;;;;;;;7.13;3.80;;;40.60;13.90;;;;;;5993180;29;20046;-72
2022/08/11 15:17:09;;;;;;;4.82;2.90;;;40.30;14.20;;;;;;6006060;29;20056;-72
2022/08/11 15:47:21;;;;;;;12.05;3.95;;;43.30;13.60;;;;;;5945725;29;20439;-72
2022/08/11 15:50:29;;;;;;;4.88;2.60;;;45.00;13.60;;;;;;5961361;29;20047;-72
2022/08/11 15:53:34;;;;;;;6.35;3.30;;;46.20;12.90;;;;;;5963734;29;20351;-73
2022/08/11 15:56:38;;;;;;;6.82;3.17;;;47.00;12.60;;;;;;5962241;29;20047;-72
2022/08/11 16:06:21;;;;;;;4.35;2.95;;;48.50;11.60;;;;;;5952883;29;20122;-72
2022/08/11 16:09:31;;;;;;;6.40;4.30;;;48.60;11.70;;;;;;5961253;29;20057;-73
2022/08/11 16:12:40;;;;;;;1.70;1.45;;;48.80;11.70;;;;;;5955435;29;20050;-72
2022/08/11 16:19:09;;;;;;;9.25;3.58;;;49.00;11.10;;;;;;5945624;29;20051;-73
2022/08/11 16:22:13;;;;;;;6.25;3.78;;;49.10;11.10;;;;;;5962433;29;20050;-72
2022/08/11 16:25:20;;;;;;;1.85;1.67;;;49.10;11.10;;;;;;6005976;29;20034;-72
2022/08/11 16:28:23;;;;;;;3.60;1.70;;;49.00;11.10;;;;;;6007642;29;20030;-72
2022/08/11 16:31:26;;;;;;;3.38;1.73;;;48.80;11.40;;;;;;6008327;29;20046;-73
2022/08/11 16:46:58;;;;;;;7.55;2.53;;;46.40;12.00;;;;;;6008361;29;20046;-72
2022/08/11 16:47:59;;;;;;;5.45;3.92;;;43.60;13.10;;;;;;6005579;29;20372;-72
2022/08/11 16:51:00;;;;;;;5.88;3.28;;;42.60;13.80;;;;;;5992826;29;20070;-71
2022/08/11 16:54:08;;;;;;;4.72;2.78;;;41.70;14.50;;;;;;5978861;29;20053;-73
2022/08/11 17:00:40;;;;;;;4.00;2.60;;;40.20;15.70;;;;;;5996983;29;20041;-73
2022/08/11 17:14:11;;;;;;;3.13;2.35;;;38.60;16.10;;;;;;5987194;29;20069;-73
2022/08/11 17:17:19;;;;;;;5.70;3.55;;;38.50;16.40;;;;;;5973508;29;20042;-71
2022/08/11 17:20:21;;;;;;;6.85;2.42;;;38.30;16.60;;;;;;5986918;29;20116;-71
2022/08/11 17:23:51;;;;;;;3.58;2.38;;;38.30;16.80;;;;;;5973545;29;20053;-73
2022/08/11 17:26:57;;;;;;;5.75;3.72;;;38.00;17.00;;;;;;5993832;29;20045;-73
2022/08/11 17:30:03;;;;;;;4.65;3.30;;;37.90;17.20;;;;;;5973896;29;20045;-72
2022/08/11 17:36:24;;;;;;;5.70;4.30;;;37.70;17.70;;;;;;6009113;29;20026;-72
2022/08/11 17:39:29;;;;;;;3.95;2.92;;;37.50;17.70;;;;;;5997722;29;20471;-71
2022/08/11 17:49:10;;;;;;;6.97;3.25;;;37.30;17.80;;;;;;6006047;29;20084;-72
2022/08/11 18:05:50;;;;;;;8.00;3.38;;;36.60;18.80;;;;;;6016148;29;20188;-73
